createdAt,value
2023-01-18T00:00:22.394Z,538.46
2023-01-18T00:03:28.675Z,532.35
2023-01-18T00:06:35.554Z,537.78
2023-01-18T00:09:41.357Z,508.27
2023-01-18T00:12:48.579Z,473.76
2023-01-18T00:15:57.037Z,419.98
2023-01-18T00:19:03.924Z,359.26
2023-01-18T00:22:09.665Z,342.72
2023-01-18T00:25:16.659Z,375.41
2023-01-18T00:28:24.987Z,374.35
2023-01-18T00:31:34.768Z,363.80
2023-01-18T00:34:40.642Z,371.08
2023-01-18T00:37:48.908Z,359.70
2023-01-18T00:40:55.344Z,366.21
2023-01-18T00:43:59.392Z,381.91
2023-01-18T00:47:08.315Z,396.22
2023-01-18T00:50:15.448Z,389.69
2023-01-18T00:53:21.523Z,362.33
2023-01-18T00:56:28.837Z,362.64
2023-01-18T00:59:34.597Z,360.13
2023-01-18T01:02:44.059Z,355.08
2023-01-18T01:06:02.861Z,366.53
2023-01-18T01:09:09.512Z,330.78
2023-01-18T01:12:27.758Z,325.59
2023-01-18T01:15:46.635Z,312.30
2023-01-18T01:19:07.791Z,279.24
2023-01-18T01:22:26.769Z,257.87
2023-01-18T01:25:45.019Z,246.49
2023-01-18T01:28:55.899Z,240.53
2023-01-18T01:32:03.143Z,232.49
2023-01-18T01:35:12.672Z,232.82
2023-01-18T01:38:18.481Z,227.26
2023-01-18T01:41:32.385Z,220.51
2023-01-18T01:44:53.109Z,207.33
2023-01-18T01:48:01.520Z,204.75
2023-01-18T01:51:11.027Z,196.93
2023-01-18T01:54:26.715Z,189.39
2023-01-18T01:57:40.649Z,180.00
2023-01-18T02:00:48.754Z,177.17
2023-01-18T02:03:54.684Z,173.49
2023-01-18T02:07:06.862Z,167.01
2023-01-18T02:10:14.557Z,167.16
2023-01-18T02:13:25.438Z,169.51
2023-01-18T02:16:57.592Z,165.49
2023-01-18T02:20:51.777Z,165.86
2023-01-18T02:25:00.444Z,161.42
2023-01-18T02:28:19.935Z,162.43
2023-01-18T02:31:37.392Z,167.10
2023-01-18T02:34:52.366Z,166.25
2023-01-18T02:38:12.867Z,171.00
2023-01-18T02:41:52.058Z,170.95
2023-01-18T02:45:14.972Z,176.28
2023-01-18T02:48:25.516Z,181.65
2023-01-18T02:51:31.423Z,187.08
2023-01-18T02:54:43.092Z,181.50
2023-01-18T02:57:49.657Z,178.95
2023-01-18T03:01:08.889Z,171.44
2023-01-18T03:04:24.232Z,157.80
2023-01-18T03:07:43.513Z,147.03
2023-01-18T03:11:03.430Z,148.17
2023-01-18T03:14:27.771Z,142.99
2023-01-18T03:17:45.304Z,142.40
2023-01-18T03:20:59.885Z,145.62
2023-01-18T03:24:12.898Z,147.82
2023-01-18T03:27:32.074Z,156.51
2023-01-18T03:30:54.527Z,150.82
2023-01-18T03:34:17.781Z,141.62
2023-01-18T03:37:31.571Z,138.08
2023-01-18T03:40:38.350Z,141.91
2023-01-18T03:43:47.966Z,140.31
2023-01-18T03:46:55.588Z,138.93
2023-01-18T03:50:05.762Z,141.34
2023-01-18T03:53:27.797Z,136.21
2023-01-18T03:56:46.220Z,152.47
2023-01-18T03:59:55.505Z,152.41
2023-01-18T04:03:02.335Z,152.32
2023-01-18T04:06:12.623Z,161.43
2023-01-18T04:09:18.718Z,157.94
2023-01-18T04:12:25.413Z,155.30
2023-01-18T04:15:31.256Z,163.04
2023-01-18T04:18:37.772Z,160.53
2023-01-18T04:21:46.331Z,162.36
2023-01-18T04:24:53.151Z,163.13
2023-01-18T04:27:58.975Z,162.09
2023-01-18T04:31:05.762Z,154.23
2023-01-18T04:34:11.851Z,148.33
2023-01-18T04:37:21.021Z,147.72
2023-01-18T04:40:28.410Z,141.69
2023-01-18T04:43:36.803Z,138.37
2023-01-18T04:46:43.145Z,142.32
2023-01-18T04:49:49.680Z,149.62
2023-01-18T04:52:58.658Z,155.27
2023-01-18T04:56:05.403Z,160.16
2023-01-18T04:59:11.211Z,173.85
2023-01-18T05:02:19.174Z,177.66
2023-01-18T05:05:26.378Z,196.83
2023-01-18T05:08:41.213Z,198.62
2023-01-18T05:11:47.605Z,210.92
2023-01-18T05:14:54.692Z,213.18
2023-01-18T05:18:01.072Z,399.28
2023-01-18T05:21:08.418Z,244.81
2023-01-18T05:24:17.148Z,241.51
2023-01-18T05:27:24.032Z,232.78
2023-01-18T05:30:29.981Z,249.76
2023-01-18T05:33:36.849Z,271.48
2023-01-18T05:36:42.766Z,291.10
2023-01-18T05:39:51.947Z,402.18
2023-01-18T05:42:58.098Z,393.60
2023-01-18T05:46:05.563Z,327.38
2023-01-18T05:49:11.451Z,300.54
2023-01-18T05:52:17.980Z,267.75
2023-01-18T05:55:26.469Z,264.90
2023-01-18T05:58:33.653Z,250.65
2023-01-18T06:01:39.489Z,253.89
2023-01-18T06:04:47.739Z,249.42
2023-01-18T06:07:53.672Z,260.78
2023-01-18T06:11:04.543Z,263.81
2023-01-18T06:14:10.415Z,321.50
2023-01-18T06:17:17.015Z,253.99
2023-01-18T06:20:22.956Z,255.03
2023-01-18T06:23:30.430Z,239.68
2023-01-18T06:26:39.198Z,238.58
2023-01-18T06:29:45.956Z,211.23
2023-01-18T06:32:51.806Z,217.96
2023-01-18T06:35:58.352Z,200.68
2023-01-18T06:39:04.068Z,201.24
2023-01-18T06:42:13.470Z,216.72
2023-01-18T06:45:22.219Z,230.16
2023-01-18T06:48:30.317Z,187.14
2023-01-18T06:51:36.645Z,150.47
2023-01-18T06:54:44.912Z,141.91
2023-01-18T06:57:55.190Z,151.70
2023-01-18T07:01:03.554Z,178.90
2023-01-18T07:04:09.668Z,198.63
2023-01-18T07:07:17.069Z,186.05
2023-01-18T07:10:23.158Z,199.88
2023-01-18T07:13:32.583Z,198.85
2023-01-18T07:16:38.475Z,166.04
2023-01-18T07:19:45.127Z,150.79
2023-01-18T07:22:54.982Z,152.64
2023-01-18T07:26:04.141Z,157.86
2023-01-18T07:29:14.325Z,172.59
2023-01-18T07:32:21.915Z,186.76
2023-01-18T07:35:27.838Z,172.71
2023-01-18T07:38:34.917Z,178.67
2023-01-18T07:41:42.256Z,168.38
2023-01-18T07:44:51.493Z,157.86
2023-01-18T07:47:57.415Z,184.64
2023-01-18T07:51:08.438Z,207.42
2023-01-18T07:54:16.313Z,193.85
2023-01-18T07:57:22.843Z,200.77
2023-01-18T08:00:32.374Z,184.21
2023-01-18T08:03:40.279Z,201.94
2023-01-18T08:06:46.499Z,193.91
2023-01-18T08:09:54.728Z,167.77
2023-01-18T08:13:01.086Z,139.82
2023-01-18T08:16:14.167Z,147.62
2023-01-18T08:19:21.151Z,154.42
2023-01-18T08:22:28.123Z,147.84
2023-01-18T08:25:35.602Z,145.73
2023-01-18T08:28:42.320Z,157.49
2023-01-18T08:31:55.412Z,165.16
2023-01-18T08:35:01.907Z,147.27
2023-01-18T08:38:07.819Z,130.53
2023-01-18T08:41:14.327Z,134.11
2023-01-18T08:44:20.289Z,139.81
2023-01-18T08:47:30.246Z,140.03
2023-01-18T08:50:39.260Z,135.34
2023-01-18T08:53:46.574Z,138.07
2023-01-18T08:56:52.400Z,147.40
2023-01-18T08:59:59.195Z,174.11
2023-01-18T09:03:08.038Z,159.36
2023-01-18T09:06:15.736Z,155.75
2023-01-18T09:09:21.832Z,167.97
2023-01-18T09:12:29.441Z,160.87
2023-01-18T09:15:36.929Z,253.23
2023-01-18T09:18:46.066Z,220.06
2023-01-18T09:21:53.353Z,199.65
2023-01-18T09:25:00.583Z,183.22
2023-01-18T09:28:08.566Z,177.34
2023-01-18T09:31:15.775Z,190.90
2023-01-18T09:34:24.651Z,197.40
2023-01-18T09:37:31.615Z,198.57
2023-01-18T09:40:47.636Z,206.82
2023-01-18T09:44:00.198Z,213.43
2023-01-18T09:47:16.015Z,212.13
2023-01-18T09:50:26.317Z,220.27
2023-01-18T10:13:28.611Z,316.09
2023-01-18T10:16:38.608Z,305.03
2023-01-18T10:19:47.335Z,284.13
2023-01-18T10:23:03.079Z,284.72
2023-01-18T10:26:20.589Z,283.10
2023-01-18T10:29:56.430Z,242.93
2023-01-18T10:33:19.557Z,226.45
2023-01-18T10:36:34.011Z,226.00
2023-01-18T10:39:46.787Z,233.88
2023-01-18T10:43:01.155Z,236.91
2023-01-18T10:46:19.006Z,232.36
2023-01-18T10:49:43.240Z,250.03
2023-01-18T10:52:49.800Z,261.08
2023-01-18T11:27:27.367Z,324.66
2023-01-18T11:50:35.062Z,361.29
2023-01-18T11:53:59.575Z,369.24
2023-01-18T12:01:22.827Z,399.38
2023-01-18T12:04:56.092Z,419.35
2023-01-18T12:08:38.549Z,455.65
2023-01-18T12:20:01.383Z,422.38
2023-01-18T12:24:03.450Z,379.09
2023-01-18T12:27:29.686Z,373.01
2023-01-18T12:31:00.567Z,381.13
2023-01-18T13:08:47.819Z,315.16
2023-01-18T13:11:58.578Z,326.50
2023-01-18T13:15:26.310Z,331.60
2023-01-18T13:22:43.602Z,310.59
2023-01-18T13:26:12.878Z,305.07
2023-01-18T13:33:17.834Z,299.21
2023-01-18T13:36:24.647Z,293.54
2023-01-18T13:39:34.682Z,296.71
2023-01-18T13:42:44.339Z,292.00
2023-01-18T13:46:20.612Z,293.76
2023-01-18T13:49:38.723Z,281.93
2023-01-18T13:52:45.282Z,268.46
2023-01-18T13:56:34.831Z,303.78
2023-01-18T13:59:52.834Z,285.90
2023-01-18T14:03:16.521Z,274.31
2023-01-18T14:06:36.306Z,268.01
2023-01-18T14:09:48.345Z,279.31
2023-01-18T14:12:59.487Z,259.57
2023-01-18T14:16:09.547Z,252.97
2023-01-18T14:19:22.919Z,249.03
2023-01-18T14:23:08.590Z,241.03
2023-01-18T14:26:22.649Z,237.44
2023-01-18T14:29:43.732Z,247.23
2023-01-18T14:33:03.602Z,242.50
2023-01-18T14:36:21.602Z,269.66
2023-01-18T14:39:30.360Z,280.81
2023-01-18T14:42:42.490Z,249.33
2023-01-18T14:46:03.136Z,242.35
2023-01-18T14:52:57.922Z,238.37
2023-01-18T14:56:11.090Z,258.56
2023-01-18T14:59:27.697Z,256.85
2023-01-18T15:02:42.836Z,255.25
2023-01-18T15:05:50.898Z,246.69
2023-01-18T15:09:00.916Z,266.94
2023-01-18T15:12:14.140Z,273.67
2023-01-18T15:15:31.499Z,273.00
2023-01-18T15:18:37.856Z,258.92
2023-01-18T15:21:46.596Z,238.82
2023-01-18T15:24:56.453Z,244.40
2023-01-18T15:32:09.767Z,235.98
2023-01-18T15:35:35.363Z,269.68
2023-01-18T15:38:43.104Z,304.64
2023-01-18T15:41:57.201Z,233.03
2023-01-18T15:45:04.702Z,245.72
2023-01-18T15:56:06.533Z,232.76
2023-01-18T16:03:07.891Z,218.34
2023-01-18T16:10:28.366Z,221.11
2023-01-18T16:13:42.893Z,231.67
2023-01-18T16:24:56.593Z,257.12
2023-01-18T16:28:07.864Z,264.22
2023-01-18T16:35:17.163Z,245.31
2023-01-18T16:38:24.229Z,236.58
2023-01-18T16:45:25.107Z,230.39
2023-01-18T17:04:30.501Z,253.45
2023-01-18T17:07:39.271Z,214.18
2023-01-18T17:10:49.621Z,195.73
2023-01-18T17:29:26.398Z,208.86
2023-01-18T17:32:36.396Z,274.80
2023-01-18T18:29:59.377Z,214.60
2023-01-18T18:33:06.075Z,220.79
2023-01-18T18:36:12.269Z,216.34
2023-01-18T18:39:18.854Z,200.96
2023-01-18T18:42:24.718Z,216.20
2023-01-18T18:45:35.158Z,240.02
2023-01-18T18:48:43.265Z,246.83
2023-01-18T18:51:50.058Z,237.32
2023-01-18T18:54:56.073Z,238.68
2023-01-18T18:58:02.883Z,246.97
2023-01-18T19:01:23.328Z,252.49
2023-01-18T19:04:30.430Z,260.94
2023-01-18T19:07:42.528Z,240.22
2023-01-18T19:10:51.571Z,235.95
2023-01-18T19:13:59.320Z,239.79
2023-01-18T19:17:10.196Z,237.89
2023-01-18T19:20:18.059Z,251.02
2023-01-18T19:23:24.871Z,250.13
2023-01-18T19:26:33.644Z,249.84
2023-01-18T19:29:41.352Z,252.45
2023-01-18T19:32:51.539Z,258.48
2023-01-18T19:35:58.536Z,283.75
2023-01-18T19:39:06.995Z,274.31
2023-01-18T19:42:16.271Z,270.89
2023-01-18T19:45:27.992Z,278.84
2023-01-18T19:48:39.474Z,303.51
2023-01-18T19:51:45.631Z,312.51
2023-01-18T19:54:52.710Z,301.03
2023-01-18T19:58:01.534Z,288.95
2023-01-18T20:01:26.617Z,287.45
2023-01-18T20:04:43.601Z,251.37
2023-01-18T20:07:50.534Z,235.79
2023-01-18T20:10:56.562Z,239.29
2023-01-18T20:14:03.568Z,221.63
2023-01-18T20:17:09.492Z,242.63
2023-01-18T20:20:31.266Z,231.66
2023-01-18T20:23:38.314Z,223.70
2023-01-18T20:26:45.433Z,222.45
2023-01-18T20:29:51.449Z,225.94
2023-01-18T20:33:00.603Z,240.34
2023-01-18T20:36:11.152Z,265.49
2023-01-18T20:39:18.295Z,290.20
2023-01-18T20:42:24.903Z,319.21
2023-01-18T20:45:31.525Z,352.11
2023-01-18T20:48:39.886Z,316.31
2023-01-18T20:51:49.347Z,285.85
2023-01-18T20:54:56.364Z,261.22
2023-01-18T20:58:03.063Z,287.47
2023-01-18T21:01:15.944Z,292.80
2023-01-18T21:04:23.506Z,297.62
2023-01-18T21:07:32.080Z,317.97
2023-01-18T21:10:41.363Z,332.85
2023-01-18T21:13:47.788Z,319.91
2023-01-18T21:16:54.542Z,329.40
2023-01-18T21:20:00.671Z,401.04
2023-01-18T21:23:10.344Z,352.38
2023-01-18T21:26:16.482Z,351.23
2023-01-18T21:29:23.086Z,292.03
2023-01-18T21:32:28.802Z,313.50
2023-01-18T21:35:35.651Z,433.87
2023-01-18T21:38:44.344Z,452.44
2023-01-18T21:42:03.449Z,605.93
2023-01-18T21:45:25.322Z,738.46
2023-01-18T21:48:34.516Z,536.68
2023-01-18T21:51:52.824Z,750.65
2023-01-18T21:55:01.962Z,722.37
2023-01-18T21:58:20.148Z,732.80
2023-01-18T22:01:34.628Z,518.41
2023-01-18T22:04:53.077Z,411.43
2023-01-18T22:08:00.010Z,325.54
2023-01-18T22:11:09.260Z,318.64
2023-01-18T22:14:16.477Z,364.92
2023-01-18T22:17:23.202Z,359.73
2023-01-18T22:20:31.066Z,355.97
2023-01-18T22:23:37.541Z,382.54
2023-01-18T22:26:48.645Z,429.67
2023-01-18T22:29:54.535Z,454.91
2023-01-18T22:33:00.995Z,572.34
2023-01-18T22:36:07.761Z,428.66
2023-01-18T22:39:18.497Z,418.09
2023-01-18T22:42:27.714Z,301.92
2023-01-18T22:45:34.339Z,471.49
2023-01-18T22:48:41.275Z,368.97
2023-01-18T22:51:47.960Z,489.56
2023-01-18T22:54:53.715Z,431.42
2023-01-18T22:58:03.494Z,325.97
2023-01-18T23:01:20.404Z,335.04
2023-01-18T23:04:29.558Z,365.77
2023-01-18T23:07:35.266Z,507.54
2023-01-18T23:10:41.843Z,396.74
2023-01-18T23:14:06.247Z,306.40
2023-01-18T23:17:26.767Z,385.53
2023-01-18T23:20:32.631Z,308.41
2023-01-18T23:23:40.893Z,368.31
2023-01-18T23:26:50.317Z,268.90
2023-01-18T23:29:59.599Z,468.74
2023-01-18T23:33:05.494Z,774.29
2023-01-18T23:36:15.813Z,868.15
2023-01-18T23:39:34.236Z,828.38
2023-01-18T23:42:53.355Z,868.62
2023-01-18T23:46:14.202Z,1017.64
2023-01-18T23:49:33.224Z,1089.06
2023-01-18T23:52:51.564Z,991.66
2023-01-18T23:55:58.189Z,707.72
2023-01-18T23:59:04.141Z,596.22
